Time;durP1;ratioP1;P1;durP2;ratioP2;P2;SDS_P1;SDS_P2;PMS_P1;PMS_P2;Temp;Humidity;BMP_temperature;BMP_pressure;BME280_temperature;BME280_humidity;BME280_pressure;Samples;Min_cycle;Max_cycle;Signal;HPM_P1;HPM_P2
2023/02/22 03:14:27;;;;;;;;;;;;;;;5.03;74.34;99721.25;1088324;54;19970;-79
2023/02/22 03:15:43;;;;;;;;;;;;;;;5.06;74.44;99714.84;1088241;54;19967;-79
2023/02/22 03:31:01;;;;;;;;;;;;;;;4.99;74.37;99715.34;1088185;54;19939;-80
2023/02/22 03:32:05;;;;;;;;;;;;;;;4.96;74.33;99712.06;1088317;54;19994;-83
2023/02/22 03:33:11;;;;;;;;;;;;;;;4.97;74.65;99713.75;1089402;39;20828;-80
2023/02/22 03:34:18;;;;;;;;;;;;;;;4.96;74.60;99712.06;1088241;54;20701;-81
2023/02/22 03:35:32;;;;;;;;;;;;;;;4.96;74.48;99710.25;1088264;54;19926;-81
2023/02/22 03:39:39;;;;;;;;;;;;;;;4.84;74.89;99697.97;1088311;54;19927;-79
2023/02/22 03:40:46;;;;;;;;;;;;;;;4.83;75.10;99705.06;1088169;54;19950;-80
2023/02/22 03:41:51;;;;;;;;;;;;;;;4.84;74.90;99706.75;1088993;46;19942;-80
2023/02/22 03:42:54;;;;;;;;;;;;;;;4.83;74.65;99699.75;1088136;54;19926;-79
2023/02/22 03:44:02;;;;;;;;;;;;;;;4.84;74.83;99701.44;1089794;46;19998;-79
2023/02/22 03:45:08;;;;;;;;;;;;;;;4.87;74.68;99696.88;1088350;46;19934;-80
2023/02/22 03:46:18;;;;;;;;;;;;;;;4.89;74.66;99697.63;1089629;46;19926;-80
2023/02/22 03:47:24;;;;;;;;;;;;;;;4.89;74.28;99693.16;1088241;54;19941;-79
2023/02/22 03:48:35;;;;;;;;;;;;;;;4.89;74.53;99702.91;1088197;54;19927;-79
2023/02/22 03:49:39;;;;;;;;;;;;;;;4.91;74.37;99701.00;1088293;54;20641;-80
2023/02/22 03:50:43;;;;;;;;;;;;;;;4.90;74.49;99701.97;1089043;39;20263;-80
2023/02/22 03:51:45;;;;;;;;;;;;;;;4.90;74.22;99707.25;1088233;54;20200;-80
2023/02/22 03:52:49;;;;;;;;;;;;;;;4.87;74.24;99696.88;1088390;54;19923;-79
2023/02/22 03:53:51;;;;;;;;;;;;;;;4.82;74.53;99703.38;1088133;54;19935;-81
2023/02/22 03:54:55;;;;;;;;;;;;;;;4.79;74.71;99698.31;1088434;54;19927;-80
2023/02/22 03:55:57;;;;;;;;;;;;;;;4.78;74.69;99701.91;1088417;54;19927;-80
2023/02/22 03:57:06;;;;;;;;;;;;;;;4.76;74.84;99708.31;1088339;54;19931;-79
2023/02/22 03:58:10;;;;;;;;;;;;;;;4.75;74.85;99698.66;1088434;54;19942;-80
2023/02/22 03:59:14;;;;;;;;;;;;;;;4.73;74.78;99701.41;1088552;47;20003;-79
2023/02/22 04:00:19;;;;;;;;;;;;;;;4.75;74.91;99702.16;1096618;39;20665;-79
2023/02/22 04:01:25;;;;;;;;;;;;;;;4.71;75.22;99700.69;1088400;54;19965;-78
2023/02/22 04:02:26;;;;;;;;;;;;;;;4.69;75.14;99697.31;1088436;54;19938;-80
2023/02/22 04:03:30;;;;;;;;;;;;;;;4.67;75.44;99701.88;1088451;46;19958;-80
2023/02/22 04:04:31;;;;;;;;;;;;;;;4.66;75.46;99697.53;1088381;54;19934;-79
2023/02/22 04:05:35;;;;;;;;;;;;;;;4.67;75.24;99699.22;1088353;54;19942;-78
2023/02/22 04:06:36;;;;;;;;;;;;;;;4.62;75.34;99701.41;1088414;54;19937;-80
2023/02/22 04:07:40;;;;;;;;;;;;;;;4.63;75.39;99693.31;1088378;54;19942;-79
2023/02/22 04:08:42;;;;;;;;;;;;;;;4.62;75.39;99704.88;1090463;46;20685;-79
2023/02/22 04:09:46;;;;;;;;;;;;;;;4.62;75.53;99701.41;1091920;46;19943;-80
2023/02/22 04:10:48;;;;;;;;;;;;;;;4.63;75.71;99703.09;1088401;54;19942;-80
2023/02/22 04:11:52;;;;;;;;;;;;;;;4.62;75.49;99702.22;1088429;54;19927;-81
2023/02/22 04:12:53;;;;;;;;;;;;;;;4.61;75.78;99705.00;1088442;54;19950;-79
2023/02/22 04:13:57;;;;;;;;;;;;;;;4.61;75.53;99703.19;1088432;54;19951;-79
2023/02/22 04:14:58;;;;;;;;;;;;;;;4.60;75.43;99703.31;1088372;54;19943;-79
2023/02/22 04:16:02;;;;;;;;;;;;;;;4.61;75.66;99702.34;1088406;54;19929;-81
2023/02/22 04:17:06;;;;;;;;;;;;;;;4.62;75.28;99704.03;1088463;54;19949;-82
2023/02/22 04:18:10;;;;;;;;;;;;;;;4.64;75.35;99700.31;1088331;54;19927;-81
2023/02/22 04:19:13;;;;;;;;;;;;;;;4.64;75.22;99710.03;1088364;54;19931;-79
2023/02/22 04:20:18;;;;;;;;;;;;;;;4.66;75.23;99702.84;1091218;46;19926;-80
2023/02/22 04:21:22;;;;;;;;;;;;;;;4.68;75.20;99707.06;1089137;46;19927;-78
2023/02/22 04:22:23;;;;;;;;;;;;;;;4.70;75.27;99701.66;1088445;54;19946;-80
2023/02/22 04:23:27;;;;;;;;;;;;;;;4.67;75.50;99699.22;1088326;54;20571;-81
2023/02/22 04:24:28;;;;;;;;;;;;;;;4.63;75.52;99697.78;1091075;46;19939;-81
2023/02/22 04:25:32;;;;;;;;;;;;;;;4.63;75.72;99705.72;1088405;54;20011;-79
2023/02/22 04:26:33;;;;;;;;;;;;;;;4.55;76.32;99697.50;1088374;54;19995;-81
2023/02/22 04:27:37;;;;;;;;;;;;;;;4.53;76.32;99694.97;1092176;46;19950;-80
2023/02/22 04:28:38;;;;;;;;;;;;;;;4.55;75.99;99697.50;1088438;54;19949;-81
2023/02/22 04:29:42;;;;;;;;;;;;;;;4.58;76.12;99697.28;1088243;54;19927;-80
2023/02/22 04:30:44;;;;;;;;;;;;;;;4.54;76.03;99699.31;1089378;46;19942;-79
2023/02/22 04:31:49;;;;;;;;;;;;;;;4.52;76.24;99702.09;1088281;54;19933;-80
2023/02/22 04:32:53;;;;;;;;;;;;;;;4.55;76.20;99700.13;1088340;54;19935;-79
2023/02/22 04:33:57;;;;;;;;;;;;;;;4.57;75.95;99698.22;1088448;54;19927;-79
2023/02/22 04:34:58;;;;;;;;;;;;;;;4.59;76.03;99698.97;1088376;54;19966;-80
2023/02/22 04:36:02;;;;;;;;;;;;;;;4.60;75.85;99695.38;1090447;46;19927;-79
2023/02/22 04:37:09;;;;;;;;;;;;;;;4.61;75.65;99694.41;1092378;39;20560;-81
2023/02/22 04:38:17;;;;;;;;;;;;;;;4.61;75.69;99697.06;1088372;54;19938;-78
2023/02/22 04:39:21;;;;;;;;;;;;;;;4.62;75.61;99698.75;1088393;54;19942;-80
2023/02/22 04:40:22;;;;;;;;;;;;;;;4.59;75.68;99697.16;1088407;54;19950;-80
2023/02/22 04:41:26;;;;;;;;;;;;;;;4.62;75.55;99696.09;1090724;46;19954;-80
2023/02/22 04:42:27;;;;;;;;;;;;;;;4.59;75.80;99691.84;1088382;54;20003;-80
2023/02/22 04:43:31;;;;;;;;;;;;;;;4.60;75.96;99695.38;1088412;54;19950;-79
2023/02/22 04:44:32;;;;;;;;;;;;;;;4.58;75.84;99694.63;1088342;54;19937;-81
2023/02/22 04:45:37;;;;;;;;;;;;;;;4.58;75.98;99691.97;1088486;54;19930;-79
2023/02/22 04:46:38;;;;;;;;;;;;;;;4.63;75.60;99692.50;1091745;39;20633;-81
2023/02/22 04:47:42;;;;;;;;;;;;;;;4.60;75.72;99698.84;1088375;54;19942;-81
2023/02/22 04:48:46;;;;;;;;;;;;;;;4.63;75.77;99690.69;1088333;54;20614;-80
2023/02/22 04:49:50;;;;;;;;;;;;;;;4.62;75.44;99688.97;1088419;54;19946;-81
2023/02/22 04:50:52;;;;;;;;;;;;;;;4.58;75.49;99686.69;1088290;54;19942;-81
2023/02/22 04:51:56;;;;;;;;;;;;;;;4.58;75.82;99692.81;1092379;46;19947;-80
2023/02/22 04:52:57;;;;;;;;;;;;;;;4.58;75.41;99687.50;1090489;47;19943;-79
2023/02/22 04:54:01;;;;;;;;;;;;;;;4.59;75.42;99691.84;1091072;46;19995;-80
2023/02/22 04:55:03;;;;;;;;;;;;;;;4.61;75.37;99683.81;1088359;54;19981;-80
2023/02/22 04:56:08;;;;;;;;;;;;;;;4.59;75.27;99689.22;1088503;47;19939;-81
2023/02/22 04:57:10;;;;;;;;;;;;;;;4.58;75.24;99681.38;1088383;54;19942;-81
2023/02/22 04:58:15;;;;;;;;;;;;;;;4.59;75.33;99688.38;1088140;54;19969;-80
2023/02/22 04:59:16;;;;;;;;;;;;;;;4.61;75.15;99679.34;1088301;54;19942;-81
2023/02/22 05:00:21;;;;;;;;;;;;;;;4.62;75.22;99685.50;1088323;54;19934;-84
2023/02/22 05:01:23;;;;;;;;;;;;;;;4.63;74.73;99681.91;1088324;54;19943;-81
2023/02/22 05:02:27;;;;;;;;;;;;;;;4.59;74.86;99678.63;1088327;54;19946;-81
2023/02/22 05:03:29;;;;;;;;;;;;;;;4.54;74.88;99678.13;1088376;54;19965;-83
2023/02/22 05:04:39;;;;;;;;;;;;;;;4.55;75.13;99678.97;1088344;54;19946;-82
2023/02/22 05:05:40;;;;;;;;;;;;;;;4.52;74.84;99680.91;1088424;54;19949;-81
2023/02/22 05:06:45;;;;;;;;;;;;;;;4.59;74.99;99683.09;1088334;54;19983;-80
2023/02/22 05:07:46;;;;;;;;;;;;;;;4.57;74.45;99685.84;1088348;54;19949;-79
2023/02/22 05:08:52;;;;;;;;;;;;;;;4.49;74.38;99691.72;1088359;54;20023;-79
2023/02/22 05:09:53;;;;;;;;;;;;;;;4.41;74.50;99693.22;1088359;54;19954;-79
2023/02/22 05:10:59;;;;;;;;;;;;;;;4.33;74.85;99696.47;1088309;54;19993;-79
2023/02/22 05:12:00;;;;;;;;;;;;;;;4.26;74.94;99684.63;1088343;54;19943;-81
2023/02/22 05:13:05;;;;;;;;;;;;;;;4.18;75.44;99683.38;1088370;54;19934;-81
2023/02/22 05:14:07;;;;;;;;;;;;;;;4.13;75.67;99674.97;1088330;54;19935;-81
2023/02/22 05:16:34;;;;;;;;;;;;;;;4.06;76.08;99673.72;1088429;54;19935;-81
2023/02/22 05:17:36;;;;;;;;;;;;;;;4.06;75.97;99679.84;1088181;54;19927;-81
2023/02/22 05:18:41;;;;;;;;;;;;;;;4.04;76.16;99678.28;1088570;39;20133;-81
2023/02/22 05:19:46;;;;;;;;;;;;;;;3.99;76.39;99677.75;1089235;47;19947;-81
2023/02/22 05:20:54;;;;;;;;;;;;;;;4.00;76.22;99690.88;1088241;54;19974;-81
2023/02/22 05:21:59;;;;;;;;;;;;;;;3.98;76.48;99684.84;1088357;54;19986;-81
2023/02/22 05:23:04;;;;;;;;;;;;;;;3.96;76.54;99678.00;1088572;47;19999;-79
2023/02/22 05:24:07;;;;;;;;;;;;;;;3.99;76.53;99675.97;1088278;54;19942;-79
2023/02/22 05:25:12;;;;;;;;;;;;;;;4.06;76.20;99679.00;1088107;54;19942;-80
2023/02/22 05:26:46;;;;;;;;;;;;;;;4.05;75.96;99679.97;1088217;54;19948;-80
2023/02/22 05:27:56;;;;;;;;;;;;;;;4.04;76.06;99681.75;1088219;54;19939;-80
2023/02/22 05:29:00;;;;;;;;;;;;;;;4.08;76.22;99678.88;1088229;54;19942;-81
2023/02/22 05:30:02;;;;;;;;;;;;;;;4.13;75.77;99685.53;1089263;47;19943;-80
2023/02/22 05:31:08;;;;;;;;;;;;;;;4.19;75.88;99685.06;1088293;54;20010;-78
2023/02/22 05:32:10;;;;;;;;;;;;;;;4.21;75.66;99683.16;1088264;54;19950;-80
2023/02/22 05:34:53;;;;;;;;;;;;;;;4.12;75.75;99686.50;1092492;39;20494;-82
2023/02/22 05:35:55;;;;;;;;;;;;;;;4.10;75.99;99677.00;1088232;54;19927;-83
2023/02/22 05:37:00;;;;;;;;;;;;;;;4.07;76.08;99680.69;1088328;54;19942;-81
2023/02/22 05:38:21;;;;;;;;;;;;;;;4.01;76.35;99682.00;1088203;54;19961;-81
2023/02/22 05:39:25;;;;;;;;;;;;;;;3.99;76.50;99683.03;1088448;47;20010;-80
2023/02/22 05:40:27;;;;;;;;;;;;;;;3.97;76.62;99685.81;1088251;54;19943;-82
2023/02/22 05:41:31;;;;;;;;;;;;;;;3.96;76.58;99681.47;1088856;47;19943;-82
2023/02/22 05:42:38;;;;;;;;;;;;;;;3.93;76.99;99688.78;1088213;54;20347;-82
2023/02/22 05:43:42;;;;;;;;;;;;;;;3.85;77.29;99684.03;1090268;47;19935;-81
2023/02/22 05:44:49;;;;;;;;;;;;;;;3.85;77.65;99686.69;1088581;54;19943;-82
2023/02/22 05:45:53;;;;;;;;;;;;;;;3.87;77.29;99680.31;1088652;54;19949;-82
2023/02/22 05:46:55;;;;;;;;;;;;;;;3.92;77.08;99679.16;1088639;54;19957;-81
2023/02/22 05:47:59;;;;;;;;;;;;;;;3.92;77.46;99681.81;1088895;46;19998;-81
2023/02/22 05:49:02;;;;;;;;;;;;;;;3.98;77.13;99678.69;1088665;54;19927;-80
2023/02/22 05:50:10;;;;;;;;;;;;;;;4.09;76.82;99680.59;1088595;54;19950;-80
2023/02/22 05:51:11;;;;;;;;;;;;;;;4.09;76.39;99678.78;1088610;54;19943;-81
2023/02/22 05:52:15;;;;;;;;;;;;;;;4.15;76.33;99678.34;1088639;54;19982;-80
2023/02/22 05:53:16;;;;;;;;;;;;;;;4.21;76.04;99683.16;1088686;54;19950;-79
2023/02/22 05:54:20;;;;;;;;;;;;;;;4.25;75.97;99683.78;1088554;54;19935;-78
2023/02/22 05:55:22;;;;;;;;;;;;;;;4.20;76.14;99681.47;1088633;54;19943;-80
2023/02/22 05:56:29;;;;;;;;;;;;;;;4.25;76.07;99685.59;1088591;54;19949;-80
2023/02/22 05:57:30;;;;;;;;;;;;;;;4.31;75.89;99687.78;1092354;39;20544;-80
2023/02/22 05:58:34;;;;;;;;;;;;;;;4.32;75.40;99685.00;1088607;54;19943;-80
2023/02/22 05:59:35;;;;;;;;;;;;;;;4.29;75.67;99679.97;1088568;54;19951;-83
2023/02/22 06:00:39;;;;;;;;;;;;;;;4.30;75.70;99681.63;1088614;47;19933;-82
2023/02/22 06:02:24;;;;;;;;;;;;;;;4.34;75.64;99687.56;1089631;46;19927;-82
2023/02/22 06:15:58;;;;;;;;;;;;;;;4.37;75.47;99688.19;1088237;54;20235;-83
2023/02/22 06:16:59;;;;;;;;;;;;;;;4.34;75.36;99693.69;1088942;46;19927;-79
2023/02/22 06:18:04;;;;;;;;;;;;;;;4.33;75.69;99685.88;1088151;54;19954;-81
2023/02/22 06:19:17;;;;;;;;;;;;;;;4.31;75.58;99678.03;1089978;46;19927;-82
2023/02/22 06:20:21;;;;;;;;;;;;;;;4.31;75.56;99683.31;1089887;46;19942;-78
2023/02/22 06:21:27;;;;;;;;;;;;;;;4.32;75.49;99685.00;1088384;54;19934;-79
2023/02/22 06:22:31;;;;;;;;;;;;;;;4.33;75.70;99685.88;1091806;46;19974;-80
2023/02/22 06:23:35;;;;;;;;;;;;;;;4.33;75.38;99680.59;1091807;46;19943;-80
2023/02/22 06:24:38;;;;;;;;;;;;;;;4.35;75.49;99686.59;1088360;54;19931;-82
2023/02/22 06:25:48;;;;;;;;;;;;;;;4.37;75.64;99697.91;1088380;54;19938;-78
2023/02/22 06:26:54;;;;;;;;;;;;;;;4.39;75.40;99677.47;1088373;54;19927;-78
2023/02/22 06:27:58;;;;;;;;;;;;;;;4.39;75.28;99690.72;1090828;46;19967;-81
2023/02/22 06:28:59;;;;;;;;;;;;;;;4.41;75.46;99685.28;1088280;54;19943;-79
2023/02/22 06:30:03;;;;;;;;;;;;;;;4.42;75.48;99687.84;1090259;39;20750;-80
2023/02/22 06:31:19;;;;;;;;;;;;;;;4.43;75.56;99689.53;1088431;54;19934;-80
2023/02/22 06:32:21;;;;;;;;;;;;;;;4.46;75.42;99691.09;1088245;54;20712;-80
2023/02/22 06:33:26;;;;;;;;;;;;;;;4.46;75.26;99688.44;1088414;54;19933;-79
2023/02/22 06:35:00;;;;;;;;;;;;;;;4.45;74.99;99689.41;1088348;54;19958;-81
2023/02/22 06:36:01;;;;;;;;;;;;;;;4.42;75.60;99689.63;1088532;54;19965;-80
2023/02/22 06:37:06;;;;;;;;;;;;;;;4.41;75.54;99698.53;1088532;54;19943;-81
2023/02/22 06:38:13;;;;;;;;;;;;;;;4.38;75.73;99694.31;1088493;54;19949;-83
2023/02/22 06:39:14;;;;;;;;;;;;;;;4.37;76.01;99692.63;1088586;54;19934;-79
2023/02/22 06:40:18;;;;;;;;;;;;;;;4.37;75.70;99697.91;1088553;54;19934;-80
2023/02/22 06:41:20;;;;;;;;;;;;;;;4.38;75.70;99699.59;1088563;54;19926;-80
2023/02/22 06:42:26;;;;;;;;;;;;;;;4.40;75.97;99702.97;1088587;54;19970;-80
2023/02/22 06:43:27;;;;;;;;;;;;;;;4.41;75.42;99694.09;1088556;54;19943;-81
2023/02/22 06:44:31;;;;;;;;;;;;;;;4.44;75.50;99706.25;1088571;54;19949;-80
2023/02/22 06:45:35;;;;;;;;;;;;;;;4.41;75.49;99703.81;1088570;54;19927;-81
2023/02/22 06:46:49;;;;;;;;;;;;;;;4.45;75.56;99702.66;1090143;39;20498;-80
2023/02/22 06:47:54;;;;;;;;;;;;;;;4.40;75.59;99704.78;1088530;54;19954;-81
2023/02/22 06:49:00;;;;;;;;;;;;;;;4.38;76.01;99704.91;1088533;54;19990;-80
2023/02/22 06:50:02;;;;;;;;;;;;;;;4.34;76.18;99708.75;1088530;54;19942;-81
2023/02/22 06:51:20;;;;;;;;;;;;;;;4.34;76.18;99711.38;1088553;54;19993;-79
2023/02/22 06:52:22;;;;;;;;;;;;;;;4.36;76.26;99717.38;1088514;54;19934;-80
2023/02/22 06:53:34;;;;;;;;;;;;;;;4.37;75.86;99717.28;1088608;54;19949;-78
2023/02/22 06:54:36;;;;;;;;;;;;;;;4.40;76.08;99712.72;1088588;54;19928;-79
2023/02/22 06:55:40;;;;;;;;;;;;;;;4.39;75.94;99719.81;1088550;54;19943;-79
2023/02/22 06:56:41;;;;;;;;;;;;;;;4.41;75.81;99719.69;1088584;54;19986;-79
2023/02/22 06:57:57;;;;;;;;;;;;;;;4.43;75.90;99718.66;1088633;54;19927;-81
2023/02/22 06:58:58;;;;;;;;;;;;;;;4.44;75.79;99722.97;1088515;54;19946;-80
2023/02/22 07:00:02;;;;;;;;;;;;;;;4.45;75.53;99721.16;1088631;54;19934;-81
2023/02/22 07:01:09;;;;;;;;;;;;;;;4.46;75.75;99723.69;1088580;54;20246;-80
2023/02/22 07:02:11;;;;;;;;;;;;;;;4.48;75.67;99728.91;1088512;54;20650;-79
2023/02/22 07:03:15;;;;;;;;;;;;;;;4.43;75.78;99723.94;1088538;54;19942;-81
2023/02/22 07:05:23;;;;;;;;;;;;;;;4.46;75.94;99726.34;1088185;54;19945;-78
2023/02/22 07:06:24;;;;;;;;;;;;;;;4.48;75.97;99726.25;1088273;54;19942;-78
2023/02/22 07:07:28;;;;;;;;;;;;;;;4.49;76.04;99727.91;1093590;46;19950;-78
2023/02/22 07:08:35;;;;;;;;;;;;;;;4.51;75.74;99731.28;1088232;54;20645;-78
2023/02/22 07:09:36;;;;;;;;;;;;;;;4.46;75.72;99733.44;1092384;39;20562;-80
2023/02/22 07:10:40;;;;;;;;;;;;;;;4.47;76.26;99728.03;1088232;54;19927;-77
2023/02/22 07:11:41;;;;;;;;;;;;;;;4.53;75.78;99730.22;1088196;54;19983;-79
2023/02/22 07:12:45;;;;;;;;;;;;;;;4.53;76.13;99738.16;1088263;54;19930;-80
2023/02/22 07:13:49;;;;;;;;;;;;;;;4.57;75.76;99736.16;1088183;54;19950;-81
2023/02/22 07:14:53;;;;;;;;;;;;;;;4.52;75.81;99731.19;1088200;54;19965;-80
2023/02/22 07:15:57;;;;;;;;;;;;;;;4.52;75.52;99733.00;1088203;54;19942;-80
2023/02/22 07:16:58;;;;;;;;;;;;;;;4.58;75.73;99734.34;1089914;31;20591;-79
2023/02/22 07:18:02;;;;;;;;;;;;;;;4.57;75.86;99740.59;1088193;54;19965;-80
2023/02/22 07:19:04;;;;;;;;;;;;;;;4.56;76.03;99734.47;1088157;54;19965;-78
2023/02/22 07:20:10;;;;;;;;;;;;;;;4.53;75.95;99735.50;1088171;54;19982;-79
2023/02/22 07:21:13;;;;;;;;;;;;;;;4.52;76.07;99733.00;1088145;54;19966;-78
2023/02/22 07:22:17;;;;;;;;;;;;;;;4.50;76.13;99730.47;1092943;39;20561;-78
2023/02/22 07:23:23;;;;;;;;;;;;;;;4.51;75.98;99739.25;1088594;39;20533;-79
2023/02/22 07:24:29;;;;;;;;;;;;;;;4.54;76.16;99736.38;1088176;54;19943;-78
2023/02/22 07:25:30;;;;;;;;;;;;;;;4.58;75.79;99742.28;1088159;54;19995;-80
2023/02/22 07:26:39;;;;;;;;;;;;;;;4.60;75.91;99740.38;1088228;54;19939;-81
2023/02/22 07:27:41;;;;;;;;;;;;;;;4.61;75.94;99740.25;1088187;54;19942;-78
2023/02/22 07:28:44;;;;;;;;;;;;;;;4.63;75.85;99740.16;1088184;54;19946;-78
2023/02/22 07:29:48;;;;;;;;;;;;;;;4.64;75.79;99742.69;1088201;54;19935;-78
2023/02/22 07:30:49;;;;;;;;;;;;;;;4.65;75.74;99743.50;1088224;54;19927;-80
2023/02/22 07:31:53;;;;;;;;;;;;;;;4.70;75.74;99741.38;1088210;54;19993;-80
2023/02/22 07:32:57;;;;;;;;;;;;;;;4.73;75.59;99737.66;1088220;54;19966;-78
2023/02/22 07:33:58;;;;;;;;;;;;;;;4.78;75.39;99736.34;1088201;54;19942;-79
2023/02/22 07:35:02;;;;;;;;;;;;;;;4.79;75.14;99738.03;1088125;54;20006;-78
2023/02/22 07:36:06;;;;;;;;;;;;;;;4.79;75.61;99735.41;1088211;54;19949;-77
2023/02/22 07:37:07;;;;;;;;;;;;;;;4.78;75.32;99733.69;1088176;54;19970;-79
2023/02/22 07:38:11;;;;;;;;;;;;;;;4.74;75.58;99742.81;1088158;54;19966;-79
2023/02/22 07:39:12;;;;;;;;;;;;;;;4.81;75.52;99744.06;1088159;54;19942;-78
2023/02/22 07:40:19;;;;;;;;;;;;;;;4.79;75.46;99740.69;1088118;54;19989;-78
2023/02/22 07:41:24;;;;;;;;;;;;;;;4.82;75.49;99743.09;1088132;54;19942;-78
2023/02/22 07:42:25;;;;;;;;;;;;;;;4.84;75.15;99743.00;1090795;31;20660;-79
2023/02/22 07:43:30;;;;;;;;;;;;;;;4.84;75.43;99746.47;1088213;54;19938;-78
2023/02/22 07:44:34;;;;;;;;;;;;;;;4.86;75.46;99748.16;1088188;54;19953;-79
2023/02/22 07:45:35;;;;;;;;;;;;;;;4.87;75.29;99745.41;1088087;54;19950;-79
2023/02/22 07:46:38;;;;;;;;;;;;;;;4.93;75.29;99744.09;1088155;54;19942;-79
2023/02/22 07:47:39;;;;;;;;;;;;;;;4.93;75.17;99744.94;1088181;54;19926;-78
2023/02/22 07:48:43;;;;;;;;;;;;;;;4.95;75.17;99742.19;1088167;54;19943;-79
2023/02/22 07:49:44;;;;;;;;;;;;;;;4.95;75.14;99740.38;1088791;46;19942;-79
2023/02/22 07:50:48;;;;;;;;;;;;;;;4.99;74.89;99744.47;1088131;54;19942;-78
2023/02/22 07:51:49;;;;;;;;;;;;;;;5.02;74.90;99739.91;1088171;54;19942;-79
2023/02/22 07:52:54;;;;;;;;;;;;;;;5.05;74.67;99745.00;1088130;54;20756;-78
2023/02/22 07:53:55;;;;;;;;;;;;;;;5.00;74.76;99742.69;1096013;31;20638;-77
2023/02/22 07:54:59;;;;;;;;;;;;;;;4.92;74.80;99735.31;1088120;54;19981;-79
2023/02/22 07:56:04;;;;;;;;;;;;;;;4.92;75.11;99739.75;1088117;54;19934;-79
2023/02/22 07:57:07;;;;;;;;;;;;;;;4.94;75.27;99733.41;1088205;54;19943;-78
2023/02/22 07:58:11;;;;;;;;;;;;;;;4.99;75.21;99746.28;1089445;39;20565;-79
2023/02/22 07:59:15;;;;;;;;;;;;;;;4.96;74.68;99743.88;1088094;54;19939;-79
2023/02/22 08:00:23;;;;;;;;;;;;;;;4.95;75.00;99739.53;1088145;54;19934;-80
2023/02/22 08:01:27;;;;;;;;;;;;;;;4.94;75.42;99740.47;1088153;54;19949;-78
2023/02/22 08:02:28;;;;;;;;;;;;;;;4.95;75.40;99737.75;1088081;54;19950;-79
2023/02/22 08:03:35;;;;;;;;;;;;;;;4.96;75.67;99735.91;1088159;54;19985;-78
2023/02/22 08:04:38;;;;;;;;;;;;;;;4.96;75.68;99736.75;1087864;54;19947;-78
2023/02/22 08:05:43;;;;;;;;;;;;;;;4.97;75.67;99732.31;1087913;54;19942;-78
2023/02/22 08:06:48;;;;;;;;;;;;;;;5.01;75.64;99739.06;1087857;54;19949;-79
2023/02/22 08:07:49;;;;;;;;;;;;;;;5.03;75.68;99737.13;1088128;54;19948;-78
2023/02/22 08:08:53;;;;;;;;;;;;;;;5.08;75.50;99737.66;1088099;54;19950;-79
2023/02/22 08:09:54;;;;;;;;;;;;;;;5.15;75.32;99727.41;1088111;54;19965;-78
2023/02/22 08:10:58;;;;;;;;;;;;;;;5.21;75.34;99728.72;1088147;54;19982;-79
2023/02/22 08:12:01;;;;;;;;;;;;;;;5.28;75.03;99728.16;1088092;54;19942;-79
2023/02/22 08:13:07;;;;;;;;;;;;;;;5.37;74.83;99726.63;1088142;54;20590;-79
2023/02/22 08:14:10;;;;;;;;;;;;;;;5.33;75.02;99721.66;1088081;54;19949;-78
2023/02/22 08:15:15;;;;;;;;;;;;;;;5.40;74.87;99726.34;1088133;54;19943;-83
2023/02/22 08:16:18;;;;;;;;;;;;;;;5.46;74.75;99720.59;1088113;54;20601;-80
2023/02/22 08:17:19;;;;;;;;;;;;;;;5.51;74.44;99733.50;1088074;54;19942;-80
2023/02/22 08:18:24;;;;;;;;;;;;;;;5.59;74.52;99728.44;1088120;54;19950;-79
2023/02/22 08:19:25;;;;;;;;;;;;;;;5.62;73.84;99720.22;1088072;54;19949;-80
2023/02/22 08:20:29;;;;;;;;;;;;;;;5.57;74.11;99716.25;1088033;54;19998;-81
2023/02/22 08:21:30;;;;;;;;;;;;;;;5.52;73.79;99726.38;1088107;54;19950;-78
2023/02/22 08:22:34;;;;;;;;;;;;;;;5.51;74.48;99722.88;1088160;54;19973;-81
2023/02/22 08:23:35;;;;;;;;;;;;;;;5.54;74.16;99725.28;1089344;46;19927;-81
2023/02/22 08:24:39;;;;;;;;;;;;;;;5.55;74.13;99720.84;1088116;54;19942;-80
2023/02/22 08:25:40;;;;;;;;;;;;;;;5.58;74.01;99725.88;1088124;54;20011;-80
2023/02/22 08:26:46;;;;;;;;;;;;;;;5.60;73.75;99722.16;1088120;54;19927;-80
2023/02/22 08:27:50;;;;;;;;;;;;;;;5.66;73.47;99722.63;1088053;54;19927;-80
2023/02/22 08:28:56;;;;;;;;;;;;;;;5.69;73.78;99722.41;1088993;39;20596;-80
2023/02/22 08:29:57;;;;;;;;;;;;;;;5.78;73.52;99721.66;1088024;54;19926;-80
2023/02/22 08:31:01;;;;;;;;;;;;;;;5.87;73.36;99725.38;1088116;54;19990;-79
2023/02/22 08:32:02;;;;;;;;;;;;;;;5.94;72.85;99718.63;1088066;54;19938;-81
2023/02/22 08:33:06;;;;;;;;;;;;;;;6.02;72.75;99716.25;1088116;54;19949;-79
2023/02/22 08:34:07;;;;;;;;;;;;;;;6.09;72.60;99712.13;1088086;54;19969;-79
2023/02/22 08:35:12;;;;;;;;;;;;;;;6.12;72.25;99718.16;1088080;54;19954;-80
2023/02/22 08:36:17;;;;;;;;;;;;;;;6.06;72.27;99715.00;1088106;54;20661;-83
2023/02/22 08:37:18;;;;;;;;;;;;;;;6.18;72.04;99705.22;1088085;54;19965;-81
2023/02/22 08:38:23;;;;;;;;;;;;;;;6.26;71.90;99715.19;1088110;54;19950;-79
2023/02/22 08:39:27;;;;;;;;;;;;;;;6.35;71.77;99705.66;1088071;54;21041;-79
2023/02/22 08:40:30;;;;;;;;;;;;;;;6.41;71.32;99713.09;1088054;54;19946;-80
2023/02/22 08:41:33;;;;;;;;;;;;;;;6.47;71.34;99711.75;1088137;54;19954;-81
2023/02/22 08:42:34;;;;;;;;;;;;;;;6.53;71.08;99708.59;1088135;54;19943;-79
2023/02/22 08:43:41;;;;;;;;;;;;;;;6.59;71.16;99702.78;1088132;54;19927;-81
2023/02/22 08:44:42;;;;;;;;;;;;;;;6.63;70.79;99698.88;1088026;54;19926;-79
2023/02/22 08:45:47;;;;;;;;;;;;;;;6.70;70.74;99701.88;1088083;54;19954;-77
2023/02/22 08:46:48;;;;;;;;;;;;;;;6.77;70.43;99700.38;1088436;46;19950;-79
2023/02/22 08:47:52;;;;;;;;;;;;;;;6.82;69.72;99702.66;1088090;54;20617;-79
2023/02/22 08:48:53;;;;;;;;;;;;;;;6.89;69.96;99698.53;1088109;54;20629;-79
2023/02/22 08:49:57;;;;;;;;;;;;;;;6.99;70.12;99704.72;1088081;54;19926;-79
2023/02/22 08:50:58;;;;;;;;;;;;;;;7.06;69.39;99696.25;1088473;47;19938;-80
2023/02/22 08:52:01;;;;;;;;;;;;;;;7.13;69.11;99698.25;1088132;54;19942;-80
2023/02/22 08:53:03;;;;;;;;;;;;;;;7.26;69.40;99700.72;1088030;54;19927;-80
2023/02/22 08:54:07;;;;;;;;;;;;;;;7.34;68.62;99698.25;1088035;54;19983;-80
2023/02/22 08:55:09;;;;;;;;;;;;;;;7.44;68.90;99694.78;1088033;54;19943;-78
2023/02/22 08:56:12;;;;;;;;;;;;;;;7.54;68.27;99689.50;1088070;54;19934;-80
2023/02/22 08:57:14;;;;;;;;;;;;;;;7.67;68.30;99695.44;1090648;47;19966;-78
2023/02/22 08:58:17;;;;;;;;;;;;;;;7.72;67.27;99693.19;1088080;54;19927;-77
2023/02/22 08:59:21;;;;;;;;;;;;;;;7.86;67.43;99694.63;1088051;54;19950;-78
2023/02/22 09:00:25;;;;;;;;;;;;;;;7.96;67.17;99690.19;1094914;31;20661;-78
2023/02/22 09:01:29;;;;;;;;;;;;;;;8.09;66.96;99686.44;1088055;54;19943;-79
2023/02/22 09:02:30;;;;;;;;;;;;;;;8.16;66.06;99692.88;1089960;47;19949;-77
2023/02/22 09:03:34;;;;;;;;;;;;;;;8.15;65.72;99693.03;1088073;54;19949;-78
2023/02/22 09:04:35;;;;;;;;;;;;;;;8.06;65.60;99686.69;1088031;54;19950;-78
2023/02/22 09:05:39;;;;;;;;;;;;;;;8.10;65.17;99682.78;1087327;54;21141;-77
2023/02/22 09:06:47;;;;;;;;;;;;;;;8.19;65.05;99687.28;1094882;39;20565;-82
2023/02/22 09:07:48;;;;;;;;;;;;;;;8.39;65.12;99684.66;1088739;47;19943;-78
2023/02/22 09:08:51;;;;;;;;;;;;;;;8.52;64.56;99690.56;1089577;39;20580;-80
2023/02/22 09:09:52;;;;;;;;;;;;;;;8.74;64.64;99678.75;1087987;54;23432;-80
2023/02/22 09:10:56;;;;;;;;;;;;;;;8.97;64.35;99682.97;1087978;54;19999;-79
2023/02/22 09:11:57;;;;;;;;;;;;;;;9.17;63.77;99681.06;1088011;54;19931;-78
2023/02/22 09:13:02;;;;;;;;;;;;;;;9.34;63.17;99682.16;1088017;54;19990;-79
2023/02/22 09:14:06;;;;;;;;;;;;;;;9.42;62.40;99676.94;1089249;39;20585;-78
2023/02/22 09:15:13;;;;;;;;;;;;;;;9.48;62.12;99675.50;1087957;54;19934;-78
2023/02/22 09:16:16;;;;;;;;;;;;;;;9.52;62.16;99675.06;1088012;54;19942;-81
2023/02/22 09:17:17;;;;;;;;;;;;;;;9.62;62.10;99679.53;1089218;39;20549;-79
2023/02/22 09:18:21;;;;;;;;;;;;;;;9.76;61.77;99679.00;1087939;54;19989;-79
2023/02/22 09:19:22;;;;;;;;;;;;;;;9.96;61.86;99678.91;1092242;39;20585;-80
2023/02/22 09:20:26;;;;;;;;;;;;;;;9.93;60.56;99680.06;1088260;54;19939;-78
2023/02/22 09:21:30;;;;;;;;;;;;;;;9.94;60.53;99680.88;1088345;54;19950;-78
2023/02/22 09:22:31;;;;;;;;;;;;;;;10.06;60.47;99674.34;1088395;54;19927;-79
2023/02/22 09:23:35;;;;;;;;;;;;;;;10.18;60.30;99674.97;1091277;39;20578;-80
2023/02/22 09:24:36;;;;;;;;;;;;;;;10.42;60.26;99674.41;1088228;54;19969;-79
2023/02/22 09:25:40;;;;;;;;;;;;;;;10.60;59.97;99669.06;1091994;39;20571;-79
2023/02/22 09:26:52;;;;;;;;;;;;;;;10.66;58.60;99675.63;1088319;54;20090;-79